sensor_id;sensor_type;location;lat;lon;timestamp;pressure;altitude;pressure_sealevel;temperature;humidity
18755;BME280;35061;47.664;9.166;2023-03-14T00:01:18;100290.68;;;7.57;100.00
18755;BME280;35061;47.664;9.166;2023-03-14T00:03:48;100294.96;;;7.52;100.00
18755;BME280;35061;47.664;9.166;2023-03-14T00:06:16;100298.30;;;7.51;100.00
18755;BME280;35061;47.664;9.166;2023-03-14T00:08:45;100295.95;;;7.49;100.00
18755;BME280;35061;47.664;9.166;2023-03-14T00:11:18;100305.26;;;7.50;100.00
18755;BME280;35061;47.664;9.166;2023-03-14T00:13:49;100309.71;;;7.51;100.00
18755;BME280;35061;47.664;9.166;2023-03-14T00:16:18;100302.41;;;7.50;100.00
18755;BME280;35061;47.664;9.166;2023-03-14T00:18:46;100303.23;;;7.50;100.00
18755;BME280;35061;47.664;9.166;2023-03-14T00:21:14;100301.66;;;7.49;100.00
18755;BME280;35061;47.664;9.166;2023-03-14T00:23:42;100309.41;;;7.49;100.00
18755;BME280;35061;47.664;9.166;2023-03-14T00:26:15;100304.51;;;7.49;100.00
18755;BME280;35061;47.664;9.166;2023-03-14T00:28:44;100308.14;;;7.50;100.00
18755;BME280;35061;47.664;9.166;2023-03-14T00:31:14;100301.14;;;7.51;100.00
18755;BME280;35061;47.664;9.166;2023-03-14T00:33:43;100302.71;;;7.52;100.00
18755;BME280;35061;47.664;9.166;2023-03-14T00:36:16;100296.07;;;7.55;100.00
18755;BME280;35061;47.664;9.166;2023-03-14T00:38:45;100300.00;;;7.58;100.00
18755;BME280;35061;47.664;9.166;2023-03-14T00:41:16;100303.66;;;7.58;100.00
18755;BME280;35061;47.664;9.166;2023-03-14T00:43:44;100297.15;;;7.58;100.00
18755;BME280;35061;47.664;9.166;2023-03-14T00:46:12;100286.55;;;7.58;100.00
18755;BME280;35061;47.664;9.166;2023-03-14T00:48:40;100263.73;;;7.58;100.00
18755;BME280;35061;47.664;9.166;2023-03-14T00:51:08;100213.73;;;7.57;100.00
18755;BME280;35061;47.664;9.166;2023-03-14T00:53:37;100190.65;;;7.55;100.00
18755;BME280;35061;47.664;9.166;2023-03-14T00:56:08;100177.63;;;7.54;100.00
18755;BME280;35061;47.664;9.166;2023-03-14T00:58:36;100177.86;;;7.50;100.00
18755;BME280;35061;47.664;9.166;2023-03-14T01:01:14;100154.25;;;7.50;100.00
18755;BME280;35061;47.664;9.166;2023-03-14T01:03:42;100143.85;;;7.47;100.00
18755;BME280;35061;47.664;9.166;2023-03-14T01:06:19;100104.45;;;7.45;100.00
18755;BME280;35061;47.664;9.166;2023-03-14T01:08:47;100089.90;;;7.43;100.00
18755;BME280;35061;47.664;9.166;2023-03-14T01:11:21;100089.41;;;7.45;100.00
18755;BME280;35061;47.664;9.166;2023-03-14T01:13:49;100098.73;;;7.45;100.00
18755;BME280;35061;47.664;9.166;2023-03-14T01:16:19;100112.20;;;7.45;100.00
18755;BME280;35061;47.664;9.166;2023-03-14T01:18:47;100113.77;;;7.46;100.00
18755;BME280;35061;47.664;9.166;2023-03-14T01:21:27;100098.27;;;7.47;100.00
18755;BME280;35061;47.664;9.166;2023-03-14T01:23:57;100092.55;;;7.47;100.00
18755;BME280;35061;47.664;9.166;2023-03-14T01:26:26;100094.41;;;7.50;100.00
18755;BME280;35061;47.664;9.166;2023-03-14T01:28:57;100087.94;;;7.49;100.00
18755;BME280;35061;47.664;9.166;2023-03-14T01:31:25;100107.88;;;7.49;100.00
18755;BME280;35061;47.664;9.166;2023-03-14T01:33:54;100133.84;;;7.51;100.00
18755;BME280;35061;47.664;9.166;2023-03-14T01:36:21;100148.37;;;7.53;100.00
18755;BME280;35061;47.664;9.166;2023-03-14T01:38:49;100164.68;;;7.53;100.00
18755;BME280;35061;47.664;9.166;2023-03-14T01:41:25;100141.86;;;7.53;100.00
18755;BME280;35061;47.664;9.166;2023-03-14T01:43:53;100141.86;;;7.53;100.00
18755;BME280;35061;47.664;9.166;2023-03-14T01:46:28;100137.74;;;7.54;100.00
18755;BME280;35061;47.664;9.166;2023-03-14T01:49:01;100133.95;;;7.57;100.00
18755;BME280;35061;47.664;9.166;2023-03-14T01:51:54;100127.73;;;7.59;100.00
18755;BME280;35061;47.664;9.166;2023-03-14T01:54:40;100117.92;;;7.60;100.00
18755;BME280;35061;47.664;9.166;2023-03-14T01:57:16;100110.95;;;7.61;100.00
18755;BME280;35061;47.664;9.166;2023-03-14T01:59:52;100104.45;;;7.60;100.00
18755;BME280;35061;47.664;9.166;2023-03-14T02:02:24;100093.33;;;7.62;100.00
18755;BME280;35061;47.664;9.166;2023-03-14T02:04:54;100082.73;;;7.63;100.00
18755;BME280;35061;47.664;9.166;2023-03-14T02:07:37;100063.28;;;7.61;100.00
18755;BME280;35061;47.664;9.166;2023-03-14T02:10:09;100070.05;;;7.64;100.00
18755;BME280;35061;47.664;9.166;2023-03-14T02:12:37;100067.99;;;7.64;100.00
18755;BME280;35061;47.664;9.166;2023-03-14T02:15:06;100077.34;;;7.65;100.00
18755;BME280;35061;47.664;9.166;2023-03-14T02:17:35;100079.70;;;7.66;100.00
18755;BME280;35061;47.664;9.166;2023-03-14T02:22:38;100069.88;;;7.67;100.00
18755;BME280;35061;47.664;9.166;2023-03-14T02:27:50;100070.15;;;7.70;100.00
18755;BME280;35061;47.664;9.166;2023-03-14T02:30:22;100082.38;;;7.70;100.00
18755;BME280;35061;47.664;9.166;2023-03-14T02:32:54;100081.07;;;7.71;100.00
18755;BME280;35061;47.664;9.166;2023-03-14T02:35:25;100071.72;;;7.71;100.00
18755;BME280;35061;47.664;9.166;2023-03-14T02:38:19;100072.53;;;7.71;100.00
18755;BME280;35061;47.664;9.166;2023-03-14T02:40:48;100079.01;;;7.72;100.00
18755;BME280;35061;47.664;9.166;2023-03-14T02:43:16;100083.95;;;7.71;100.00
18755;BME280;35061;47.664;9.166;2023-03-14T02:45:46;100085.22;;;7.70;100.00
18755;BME280;35061;47.664;9.166;2023-03-14T02:48:24;100082.38;;;7.70;100.00
18755;BME280;35061;47.664;9.166;2023-03-14T02:50:55;100071.26;;;7.72;100.00
18755;BME280;35061;47.664;9.166;2023-03-14T02:53:33;100058.77;;;7.70;100.00
18755;BME280;35061;47.664;9.166;2023-03-14T02:56:01;100059.55;;;7.70;100.00
18755;BME280;35061;47.664;9.166;2023-03-14T02:58:29;100046.57;;;7.69;100.00
18755;BME280;35061;47.664;9.166;2023-03-14T03:00:57;100047.35;;;7.70;100.00
18755;BME280;35061;47.664;9.166;2023-03-14T03:03:25;100043.43;;;7.67;99.07
18755;BME280;35061;47.664;9.166;2023-03-14T03:05:55;100048.63;;;7.68;99.24
18755;BME280;35061;47.664;9.166;2023-03-14T03:08:25;100049.94;;;7.67;98.60
18755;BME280;35061;47.664;9.166;2023-03-14T03:10:53;100048.37;;;7.66;98.50
18755;BME280;35061;47.664;9.166;2023-03-14T03:13:21;100039.02;;;7.66;97.85
18755;BME280;35061;47.664;9.166;2023-03-14T03:15:49;100035.16;;;7.69;97.79
18755;BME280;35061;47.664;9.166;2023-03-14T03:18:17;100040.39;;;7.71;97.43
18755;BME280;35061;47.664;9.166;2023-03-14T03:20:45;100047.65;;;7.72;97.06
18755;BME280;35061;47.664;9.166;2023-03-14T03:23:13;100044.80;;;7.72;96.40
18755;BME280;35061;47.664;9.166;2023-03-14T03:25:41;100047.95;;;7.74;96.63
18755;BME280;35061;47.664;9.166;2023-03-14T03:28:08;100045.59;;;7.72;95.84
18755;BME280;35061;47.664;9.166;2023-03-14T03:30:40;100040.95;;;7.75;95.78
18755;BME280;35061;47.664;9.166;2023-03-14T03:33:08;100036.53;;;7.74;94.93
18755;BME280;35061;47.664;9.166;2023-03-14T03:35:47;100038.43;;;7.77;95.29
18755;BME280;35061;47.664;9.166;2023-03-14T03:38:16;100036.04;;;7.75;94.40
18755;BME280;35061;47.664;9.166;2023-03-14T03:40:44;100034.27;;;7.78;93.31
18755;BME280;35061;47.664;9.166;2023-03-14T03:43:12;100026.49;;;7.78;93.76
18755;BME280;35061;47.664;9.166;2023-03-14T03:45:39;100026.03;;;7.80;93.77
18755;BME280;35061;47.664;9.166;2023-03-14T03:48:07;100023.95;;;7.80;93.25
18755;BME280;35061;47.664;9.166;2023-03-14T03:50:35;100025.55;;;7.81;93.14
18755;BME280;35061;47.664;9.166;2023-03-14T03:53:03;100019.85;;;7.81;91.66
18755;BME280;35061;47.664;9.166;2023-03-14T03:55:30;100022.18;;;7.83;92.34
18755;BME280;35061;47.664;9.166;2023-03-14T03:57:58;100013.91;;;7.85;92.33
18755;BME280;35061;47.664;9.166;2023-03-14T04:00:26;100021.98;;;7.87;92.63
18755;BME280;35061;47.664;9.166;2023-03-14T04:02:54;100014.43;;;7.84;91.38
18755;BME280;35061;47.664;9.166;2023-03-14T04:05:21;100004.09;;;7.86;92.29
18755;BME280;35061;47.664;9.166;2023-03-14T04:07:49;100002.52;;;7.85;91.61
18755;BME280;35061;47.664;9.166;2023-03-14T04:10:17;100017.27;;;7.84;91.70
18755;BME280;35061;47.664;9.166;2023-03-14T04:12:45;100013.91;;;7.85;91.45
18755;BME280;35061;47.664;9.166;2023-03-14T04:15:12;100004.09;;;7.86;91.53
18755;BME280;35061;47.664;9.166;2023-03-14T04:17:40;99988.27;;;7.85;91.33
18755;BME280;35061;47.664;9.166;2023-03-14T04:20:09;99986.70;;;7.84;90.78
18755;BME280;35061;47.664;9.166;2023-03-14T04:22:40;99988.27;;;7.85;91.23
18755;BME280;35061;47.664;9.166;2023-03-14T04:25:10;99985.42;;;7.85;91.43
18755;BME280;35061;47.664;9.166;2023-03-14T04:27:37;99982.05;;;7.87;91.02
18755;BME280;35061;47.664;9.166;2023-03-14T04:30:06;99982.55;;;7.85;91.10
18755;BME280;35061;47.664;9.166;2023-03-14T04:32:34;99976.56;;;7.83;90.99
18755;BME280;35061;47.664;9.166;2023-03-14T04:35:01;99977.38;;;7.84;90.67
18755;BME280;35061;47.664;9.166;2023-03-14T04:37:29;99979.41;;;7.83;90.90
18755;BME280;35061;47.664;9.166;2023-03-14T04:39:57;99967.24;;;7.82;91.01
18755;BME280;35061;47.664;9.166;2023-03-14T04:42:24;99964.40;;;7.82;91.15
18755;BME280;35061;47.664;9.166;2023-03-14T04:44:52;99970.87;;;7.83;91.64
18755;BME280;35061;47.664;9.166;2023-03-14T04:47:20;99980.22;;;7.84;91.59
18755;BME280;35061;47.664;9.166;2023-03-14T04:49:48;99969.59;;;7.84;91.35
18755;BME280;35061;47.664;9.166;2023-03-14T04:52:15;99942.35;;;7.83;91.48
18755;BME280;35061;47.664;9.166;2023-03-14T04:54:43;99960.73;;;7.82;91.36
18755;BME280;35061;47.664;9.166;2023-03-14T04:57:11;99958.70;;;7.82;91.55
18755;BME280;35061;47.664;9.166;2023-03-14T04:59:39;99958.70;;;7.82;91.67
18755;BME280;35061;47.664;9.166;2023-03-14T05:02:06;99963.61;;;7.82;91.43
18755;BME280;35061;47.664;9.166;2023-03-14T05:04:34;99947.78;;;7.81;91.37
18755;BME280;35061;47.664;9.166;2023-03-14T05:07:02;99939.22;;;7.81;91.31
18755;BME280;35061;47.664;9.166;2023-03-14T05:09:30;99937.65;;;7.80;90.68
18755;BME280;35061;47.664;9.166;2023-03-14T05:11:57;99933.52;;;7.81;90.91
18755;BME280;35061;47.664;9.166;2023-03-14T05:14:25;99927.84;;;7.81;90.83
18755;BME280;35061;47.664;9.166;2023-03-14T05:16:53;99919.27;;;7.81;90.97
18755;BME280;35061;47.664;9.166;2023-03-14T05:19:21;99916.42;;;7.81;90.48
18755;BME280;35061;47.664;9.166;2023-03-14T05:21:48;99905.50;;;7.79;90.51
18755;BME280;35061;47.664;9.166;2023-03-14T05:24:16;99894.41;;;7.81;90.35
18755;BME280;35061;47.664;9.166;2023-03-14T05:26:44;99889.48;;;7.82;90.38
18755;BME280;35061;47.664;9.166;2023-03-14T05:29:12;99890.27;;;7.82;90.38
18755;BME280;35061;47.664;9.166;2023-03-14T05:31:39;99895.17;;;7.82;90.25
18755;BME280;35061;47.664;9.166;2023-03-14T05:34:07;99898.05;;;7.82;90.41
18755;BME280;35061;47.664;9.166;2023-03-14T05:36:35;99895.17;;;7.82;90.32
18755;BME280;35061;47.664;9.166;2023-03-14T05:39:02;99894.09;;;7.79;90.17
18755;BME280;35061;47.664;9.166;2023-03-14T05:41:30;99882.22;;;7.81;90.46
18755;BME280;35061;47.664;9.166;2023-03-14T05:43:58;99877.51;;;7.78;89.17
18755;BME280;35061;47.664;9.166;2023-03-14T05:46:26;99877.51;;;7.78;90.08
18755;BME280;35061;47.664;9.166;2023-03-14T05:48:53;99877.80;;;7.80;90.52
18755;BME280;35061;47.664;9.166;2023-03-14T05:51:21;99871.82;;;7.78;89.95
18755;BME280;35061;47.664;9.166;2023-03-14T05:53:49;99858.31;;;7.78;89.89
18755;BME280;35061;47.664;9.166;2023-03-14T05:56:17;99857.83;;;7.80;89.99
18755;BME280;35061;47.664;9.166;2023-03-14T05:58:45;99857.56;;;7.78;89.21
18755;BME280;35061;47.664;9.166;2023-03-14T06:01:12;99841.73;;;7.77;89.67
18755;BME280;35061;47.664;9.166;2023-03-14T06:03:40;99840.46;;;7.78;89.24
18755;BME280;35061;47.664;9.166;2023-03-14T06:06:08;99845.89;;;7.76;88.25
18755;BME280;35061;47.664;9.166;2023-03-14T06:08:36;99845.56;;;7.74;88.78
18755;BME280;35061;47.664;9.166;2023-03-14T06:11:04;99841.73;;;7.77;89.08
18755;BME280;35061;47.664;9.166;2023-03-14T06:13:31;99848.21;;;7.77;89.09
18755;BME280;35061;47.664;9.166;2023-03-14T06:15:59;99850.30;;;7.77;88.92
18755;BME280;35061;47.664;9.166;2023-03-14T06:18:27;99837.62;;;7.78;88.87
18755;BME280;35061;47.664;9.166;2023-03-14T06:20:55;99848.73;;;7.76;88.34
18755;BME280;35061;47.664;9.166;2023-03-14T06:23:23;99849.00;;;7.78;88.30
18755;BME280;35061;47.664;9.166;2023-03-14T06:25:51;99840.46;;;7.78;88.37
18755;BME280;35061;47.664;9.166;2023-03-14T06:28:19;99850.04;;;7.80;88.29
18755;BME280;35061;47.664;9.166;2023-03-14T06:30:46;99845.17;;;7.81;88.32
18755;BME280;35061;47.664;9.166;2023-03-14T06:33:14;99830.91;;;7.81;88.06
18755;BME280;35061;47.664;9.166;2023-03-14T06:35:42;99835.82;;;7.80;87.40
18755;BME280;35061;47.664;9.166;2023-03-14T06:38:10;99835.82;;;7.80;87.46
18755;BME280;35061;47.664;9.166;2023-03-14T06:40:38;99825.19;;;7.81;87.04
18755;BME280;35061;47.664;9.166;2023-03-14T06:43:05;99819.80;;;7.83;87.76
18755;BME280;35061;47.664;9.166;2023-03-14T06:45:33;99812.80;;;7.84;87.51
18755;BME280;35061;47.664;9.166;2023-03-14T06:48:01;99813.38;;;7.88;87.78
18755;BME280;35061;47.664;9.166;2023-03-14T06:50:29;99804.82;;;7.88;86.99
18755;BME280;35061;47.664;9.166;2023-03-14T06:52:56;99804.63;;;7.92;87.28
18755;BME280;35061;47.664;9.166;2023-03-14T06:55:24;99802.82;;;7.94;87.31
18755;BME280;35061;47.664;9.166;2023-03-14T06:57:53;99805.44;;;7.98;86.77
18755;BME280;35061;47.664;9.166;2023-03-14T07:00:21;99796.41;;;8.00;86.56
18755;BME280;35061;47.664;9.166;2023-03-14T07:02:49;99789.71;;;8.03;86.17
18755;BME280;35061;47.664;9.166;2023-03-14T07:05:17;99794.91;;;8.04;84.57
18755;BME280;35061;47.664;9.166;2023-03-14T07:07:44;99796.48;;;8.05;85.22
18755;BME280;35061;47.664;9.166;2023-03-14T07:10:12;99800.41;;;8.08;83.47
18755;BME280;35061;47.664;9.166;2023-03-14T07:12:40;99805.87;;;8.12;83.57
18755;BME280;35061;47.664;9.166;2023-03-14T07:15:08;99808.77;;;8.17;83.85
18755;BME280;35061;47.664;9.166;2023-03-14T07:17:44;99804.43;;;8.22;83.02
18755;BME280;35061;47.664;9.166;2023-03-14T07:20:12;99794.87;;;8.25;82.00
18755;BME280;35061;47.664;9.166;2023-03-14T07:22:40;99806.62;;;8.33;82.59
18755;BME280;35061;47.664;9.166;2023-03-14T07:25:08;99790.59;;;8.35;82.69
18755;BME280;35061;47.664;9.166;2023-03-14T07:27:39;99797.07;;;8.36;81.48
18755;BME280;35061;47.664;9.166;2023-03-14T07:30:07;99805.60;;;8.36;81.04
18755;BME280;35061;47.664;9.166;2023-03-14T07:32:35;99807.47;;;8.39;81.56
18755;BME280;35061;47.664;9.166;2023-03-14T07:35:03;99802.04;;;8.41;80.96
18755;BME280;35061;47.664;9.166;2023-03-14T07:37:31;99803.09;;;8.44;81.39
18755;BME280;35061;47.664;9.166;2023-03-14T07:39:58;99815.31;;;8.44;79.97
18755;BME280;35061;47.664;9.166;2023-03-14T07:42:26;99822.34;;;8.49;80.51
18755;BME280;35061;47.664;9.166;2023-03-14T07:44:54;99828.36;;;8.51;80.58
18755;BME280;35061;47.664;9.166;2023-03-14T07:47:22;99818.23;;;8.50;79.57
18755;BME280;35061;47.664;9.166;2023-03-14T07:49:49;99816.95;;;8.51;79.99
18755;BME280;35061;47.664;9.166;2023-03-14T07:52:17;99824.50;;;8.54;78.60
18755;BME280;35061;47.664;9.166;2023-03-14T07:54:45;99823.78;;;8.59;78.16
18755;BME280;35061;47.664;9.166;2023-03-14T07:57:13;99829.28;;;8.63;78.10
18755;BME280;35061;47.664;9.166;2023-03-14T07:59:40;99830.39;;;8.71;77.94
18755;BME280;35061;47.664;9.166;2023-03-14T08:02:11;99832.71;;;8.73;77.51
18755;BME280;35061;47.664;9.166;2023-03-14T08:04:40;99842.36;;;8.75;77.12
18755;BME280;35061;47.664;9.166;2023-03-14T08:07:08;99831.80;;;8.82;77.88
18755;BME280;35061;47.664;9.166;2023-03-14T08:09:35;99827.91;;;8.85;76.82
18755;BME280;35061;47.664;9.166;2023-03-14T08:12:03;99839.64;;;8.92;77.79
18755;BME280;35061;47.664;9.166;2023-03-14T08:14:31;99835.79;;;8.96;77.22
18755;BME280;35061;47.664;9.166;2023-03-14T08:16:59;99828.00;;;8.96;76.63
18755;BME280;35061;47.664;9.166;2023-03-14T08:19:27;99819.70;;;8.98;76.39
18755;BME280;35061;47.664;9.166;2023-03-14T08:21:54;99832.98;;;9.01;77.06
18755;BME280;35061;47.664;9.166;2023-03-14T08:24:22;99832.71;;;9.37;78.41
18755;BME280;35061;47.664;9.166;2023-03-14T08:26:50;99814.07;;;9.97;77.36
18755;BME280;35061;47.664;9.166;2023-03-14T08:29:18;99820.25;;;10.50;74.06
18755;BME280;35061;47.664;9.166;2023-03-14T08:31:46;99822.90;;;10.99;71.17
18755;BME280;35061;47.664;9.166;2023-03-14T08:34:14;99830.69;;;10.99;69.61
18755;BME280;35061;47.664;9.166;2023-03-14T08:36:42;99826.27;;;10.81;69.92
18755;BME280;35061;47.664;9.166;2023-03-14T08:39:09;99843.70;;;10.66;69.82
18755;BME280;35061;47.664;9.166;2023-03-14T08:41:37;99833.76;;;10.50;69.79
18755;BME280;35061;47.664;9.166;2023-03-14T08:44:08;99840.23;;;10.39;70.02
18755;BME280;35061;47.664;9.166;2023-03-14T08:46:37;99833.43;;;10.30;70.07
18755;BME280;35061;47.664;9.166;2023-03-14T08:49:05;99841.21;;;10.24;69.43
18755;BME280;35061;47.664;9.166;2023-03-14T08:51:33;99860.48;;;10.24;69.62
18755;BME280;35061;47.664;9.166;2023-03-14T08:54:01;99856.02;;;10.17;68.71
18755;BME280;35061;47.664;9.166;2023-03-14T08:56:28;99863.55;;;10.14;68.15
18755;BME280;35061;47.664;9.166;2023-03-14T08:58:56;99859.88;;;10.14;68.47
18755;BME280;35061;47.664;9.166;2023-03-14T09:01:24;99843.54;;;10.14;68.65
18755;BME280;35061;47.664;9.166;2023-03-14T09:03:53;99844.84;;;10.19;68.81
18755;BME280;35061;47.664;9.166;2023-03-14T09:06:21;99865.41;;;10.23;68.44
18755;BME280;35061;47.664;9.166;2023-03-14T09:08:49;99845.92;;;10.22;67.92
18755;BME280;35061;47.664;9.166;2023-03-14T09:11:17;99865.18;;;10.32;69.31
18755;BME280;35061;47.664;9.166;2023-03-14T09:13:46;99868.84;;;10.39;68.77
18755;BME280;35061;47.664;9.166;2023-03-14T09:16:14;99853.48;;;10.36;66.93
18755;BME280;35061;47.664;9.166;2023-03-14T09:18:41;99852.43;;;10.39;67.36
18755;BME280;35061;47.664;9.166;2023-03-14T09:21:10;99856.65;;;10.44;67.28
18755;BME280;35061;47.664;9.166;2023-03-14T09:23:38;99867.34;;;10.49;66.62
18755;BME280;35061;47.664;9.166;2023-03-14T09:26:07;99872.31;;;10.60;66.84
18755;BME280;35061;47.664;9.166;2023-03-14T09:28:35;99859.59;;;10.72;67.25
18755;BME280;35061;47.664;9.166;2023-03-14T09:31:08;99875.22;;;10.83;66.19
18755;BME280;35061;47.664;9.166;2023-03-14T09:33:37;99891.15;;;10.95;66.23
18755;BME280;35061;47.664;9.166;2023-03-14T09:36:06;99884.61;;;11.00;65.29
18755;BME280;35061;47.664;9.166;2023-03-14T09:38:35;99897.88;;;11.03;65.47
18755;BME280;35061;47.664;9.166;2023-03-14T09:41:16;99907.79;;;11.08;64.53
18755;BME280;35061;47.664;9.166;2023-03-14T09:43:46;99892.72;;;11.08;64.58
18755;BME280;35061;47.664;9.166;2023-03-14T09:46:15;99890.10;;;11.10;65.50
18755;BME280;35061;47.664;9.166;2023-03-14T09:48:43;99905.47;;;11.18;64.97
18755;BME280;35061;47.664;9.166;2023-03-14T09:51:15;99914.85;;;11.13;63.38
18755;BME280;35061;47.664;9.166;2023-03-14T09:53:46;99911.48;;;11.14;64.09
18755;BME280;35061;47.664;9.166;2023-03-14T09:56:25;99941.44;;;11.19;64.40
18755;BME280;35061;47.664;9.166;2023-03-14T09:59:00;99919.83;;;11.24;64.54
18755;BME280;35061;47.664;9.166;2023-03-14T10:01:30;99925.55;;;11.35;65.06
18755;BME280;35061;47.664;9.166;2023-03-14T10:04:14;99917.21;;;11.43;65.47
18755;BME280;35061;47.664;9.166;2023-03-14T10:06:42;99916.42;;;11.48;64.44
18755;BME280;35061;47.664;9.166;2023-03-14T10:09:17;99927.90;;;11.48;63.82
18755;BME280;35061;47.664;9.166;2023-03-14T10:11:46;99933.36;;;11.40;63.16
18755;BME280;35061;47.664;9.166;2023-03-14T10:14:31;99933.36;;;11.35;63.30
18755;BME280;35061;47.664;9.166;2023-03-14T10:17:08;99937.02;;;11.29;64.06
18755;BME280;35061;47.664;9.166;2023-03-14T10:19:52;99938.07;;;11.32;64.96
18755;BME280;35061;47.664;9.166;2023-03-14T10:22:21;99923.45;;;11.30;64.46
18755;BME280;35061;47.664;9.166;2023-03-14T10:24:56;99935.45;;;11.23;63.50
18755;BME280;35061;47.664;9.166;2023-03-14T10:27:32;99931.27;;;11.24;64.60
18755;BME280;35061;47.664;9.166;2023-03-14T10:30:02;99920.58;;;11.24;64.54
18755;BME280;35061;47.664;9.166;2023-03-14T10:32:36;99940.13;;;11.20;64.47
18755;BME280;35061;47.664;9.166;2023-03-14T10:35:18;99939.61;;;11.16;64.14
18755;BME280;35061;47.664;9.166;2023-03-14T10:37:53;99942.75;;;11.12;64.58
18755;BME280;35061;47.664;9.166;2023-03-14T10:40:32;99936.47;;;11.20;65.54
18755;BME280;35061;47.664;9.166;2023-03-14T10:43:04;99924.77;;;11.17;65.48
18755;BME280;35061;47.664;9.166;2023-03-14T10:45:38;99935.45;;;11.17;64.40
18755;BME280;35061;47.664;9.166;2023-03-14T10:51:10;99973.45;;;11.12;64.24
18755;BME280;35061;47.664;9.166;2023-03-14T10:53:44;99970.84;;;11.08;64.24
18755;BME280;35061;47.664;9.166;2023-03-14T10:56:14;99978.65;;;10.96;64.50
18755;BME280;35061;47.664;9.166;2023-03-14T10:58:45;99994.28;;;10.95;66.19
18755;BME280;35061;47.664;9.166;2023-03-14T11:01:48;99980.94;;;10.86;68.27
18755;BME280;35061;47.664;9.166;2023-03-14T11:07:11;99978.26;;;10.60;72.36
18755;BME280;35061;47.664;9.166;2023-03-14T11:09:48;100008.57;;;10.40;74.08
18755;BME280;35061;47.664;9.166;2023-03-14T11:12:39;99989.94;;;10.13;75.57
18755;BME280;35061;47.664;9.166;2023-03-14T11:15:15;99988.49;;;9.91;76.22
18755;BME280;35061;47.664;9.166;2023-03-14T11:17:53;99980.32;;;9.72;77.63
18755;BME280;35061;47.664;9.166;2023-03-14T11:23:12;99985.13;;;9.55;79.30
18755;BME280;35061;47.664;9.166;2023-03-14T11:26:12;99995.76;;;9.54;79.74
18755;BME280;35061;47.664;9.166;2023-03-14T11:28:47;100000.43;;;9.52;80.23
18755;BME280;35061;47.664;9.166;2023-03-14T11:31:35;100012.37;;;9.50;80.28
18755;BME280;35061;47.664;9.166;2023-03-14T11:36:56;100021.66;;;9.45;80.30
18755;BME280;35061;47.664;9.166;2023-03-14T11:39:34;100015.99;;;9.51;81.44
18755;BME280;35061;47.664;9.166;2023-03-14T11:42:11;100019.92;;;9.53;80.76
18755;BME280;35061;47.664;9.166;2023-03-14T11:44:43;100031.56;;;9.49;80.24
18755;BME280;35061;47.664;9.166;2023-03-14T11:50:00;100036.01;;;9.24;80.34
18755;BME280;35061;47.664;9.166;2023-03-14T11:52:36;100035.88;;;9.13;82.08
18755;BME280;35061;47.664;9.166;2023-03-14T11:57:35;100044.77;;;8.94;83.07
18755;BME280;35061;47.664;9.166;2023-03-14T12:05:42;100063.54;;;8.80;82.47
18755;BME280;35061;47.664;9.166;2023-03-14T12:11:13;100085.35;;;8.62;83.89
18755;BME280;35061;47.664;9.166;2023-03-14T12:13:47;100090.81;;;8.45;84.51
18755;BME280;35061;47.664;9.166;2023-03-14T12:18:51;100097.84;;;8.14;85.15
18755;BME280;35061;47.664;9.166;2023-03-14T12:21:44;100100.63;;;7.93;85.91
18755;BME280;35061;47.664;9.166;2023-03-14T12:24:24;100087.09;;;7.73;87.17
18755;BME280;35061;47.664;9.166;2023-03-14T12:27:02;100095.62;;;7.58;88.15
18755;BME280;35061;47.664;9.166;2023-03-14T12:29:34;100096.50;;;7.49;88.94
18755;BME280;35061;47.664;9.166;2023-03-14T12:32:24;100092.45;;;7.41;89.63
18755;BME280;35061;47.664;9.166;2023-03-14T12:34:52;100082.70;;;7.33;91.00
18755;BME280;35061;47.664;9.166;2023-03-14T12:37:36;100096.83;;;7.27;92.21
18755;BME280;35061;47.664;9.166;2023-03-14T12:40:13;100088.95;;;7.22;92.82
18755;BME280;35061;47.664;9.166;2023-03-14T12:42:57;100081.40;;;7.19;92.66
18755;BME280;35061;47.664;9.166;2023-03-14T12:45:30;100107.23;;;7.15;93.32
18755;BME280;35061;47.664;9.166;2023-03-14T12:48:16;100116.26;;;7.14;93.19
18755;BME280;35061;47.664;9.166;2023-03-14T12:59:50;100163.93;;;7.28;92.70
18755;BME280;35061;47.664;9.166;2023-03-14T13:02:38;100178.68;;;7.42;91.54
18755;BME280;35061;47.664;9.166;2023-03-14T13:05:16;100179.23;;;7.55;89.89
18755;BME280;35061;47.664;9.166;2023-03-14T13:10:30;100187.34;;;7.87;90.55
18755;BME280;35061;47.664;9.166;2023-03-14T13:13:23;100199.34;;;8.06;89.38
18755;BME280;35061;47.664;9.166;2023-03-14T13:15:58;100196.01;;;8.22;86.79
18755;BME280;35061;47.664;9.166;2023-03-14T13:18:39;100202.48;;;8.38;86.12
18755;BME280;35061;47.664;9.166;2023-03-14T13:24:03;100214.09;;;8.64;83.88
18755;BME280;35061;47.664;9.166;2023-03-14T13:26:49;100227.04;;;8.80;82.79
18755;BME280;35061;47.664;9.166;2023-03-14T13:29:25;100240.25;;;8.93;81.27
18755;BME280;35061;47.664;9.166;2023-03-14T13:31:56;100267.00;;;8.96;79.35
18755;BME280;35061;47.664;9.166;2023-03-14T13:34:33;100273.51;;;8.96;79.16
18755;BME280;35061;47.664;9.166;2023-03-14T13:37:01;100297.05;;;8.91;78.12
18755;BME280;35061;47.664;9.166;2023-03-14T13:39:31;100333.77;;;8.83;77.92
18755;BME280;35061;47.664;9.166;2023-03-14T13:42:01;100334.92;;;8.46;76.14
18755;BME280;35061;47.664;9.166;2023-03-14T13:44:35;100325.86;;;7.93;76.89
18755;BME280;35061;47.664;9.166;2023-03-14T13:47:06;100350.42;;;7.76;77.36
18755;BME280;35061;47.664;9.166;2023-03-14T13:49:38;100352.74;;;7.53;78.35
18755;BME280;35061;47.664;9.166;2023-03-14T13:54:57;100380.63;;;7.49;80.56
18755;BME280;35061;47.664;9.166;2023-03-14T13:57:26;100375.08;;;7.54;81.23
18755;BME280;35061;47.664;9.166;2023-03-14T14:00:05;100383.88;;;7.66;82.55
18755;BME280;35061;47.664;9.166;2023-03-14T14:02:36;100406.77;;;7.81;81.92
18755;BME280;35061;47.664;9.166;2023-03-14T14:05:05;100398.55;;;7.98;80.71
18755;BME280;35061;47.664;9.166;2023-03-14T14:07:33;100390.97;;;8.19;71.12
18755;BME280;35061;47.664;9.166;2023-03-14T14:10:01;100406.17;;;8.41;71.12
18755;BME280;35061;47.664;9.166;2023-03-14T14:12:36;100416.37;;;8.57;68.81